Time;durP1;ratioP1;P1;durP2;ratioP2;P2;SDS_P1;SDS_P2;PMS_P1;PMS_P2;Temp;Humidity;BMP_temperature;BMP_pressure;BME280_temperature;BME280_humidity;BME280_pressure;Samples;Min_cycle;Max_cycle;Signal;HPM_P1;HPM_P2
2022/08/06 00:02:20;;;;;;;6.25;2.90;;;12.40;99.90;;;;;;5033602;28;20080;-62
2022/08/06 00:04:47;;;;;;;10.18;3.13;;;12.50;99.90;;;;;;5033742;28;20052;-61
2022/08/06 00:07:13;;;;;;;9.25;3.22;;;12.70;99.90;;;;;;5033608;28;20048;-64
2022/08/06 00:09:39;;;;;;;6.90;3.15;;;12.90;99.90;;;;;;5033460;28;20053;-62
2022/08/06 00:12:05;;;;;;;8.00;2.92;;;12.60;99.90;;;;;;5033484;28;20049;-68
2022/08/06 00:14:32;;;;;;;7.93;3.00;;;12.50;99.90;;;;;;5033337;28;20112;-68
2022/08/06 00:17:00;;;;;;;7.68;3.40;;;12.50;99.90;;;;;;5033507;28;20073;-67
2022/08/06 00:19:26;;;;;;;4.88;2.92;;;;;;;;;;5032573;28;20037;-70
2022/08/06 00:21:56;;;;;;;5.75;3.30;;;12.50;99.90;;;;;;5033337;28;20094;-62
2022/08/06 00:24:21;;;;;;;8.90;2.90;;;12.90;99.90;;;;;;5033320;28;20041;-63
2022/08/06 00:26:47;;;;;;;7.57;3.08;;;12.50;99.90;;;;;;5033622;28;20044;-62
2022/08/06 00:29:13;;;;;;;5.25;2.78;;;12.50;99.90;;;;;;5033518;28;20450;-68
2022/08/06 00:31:40;;;;;;;7.20;2.90;;;;;;;;;;5033183;28;20060;-67
2022/08/06 00:34:06;;;;;;;5.22;2.88;;;12.40;99.90;;;;;;5033625;28;20529;-63
2022/08/06 00:36:33;;;;;;;5.32;3.03;;;12.30;99.90;;;;;;5033639;28;20164;-68
2022/08/06 00:39:03;;;;;;;7.00;2.80;;;12.30;99.90;;;;;;5033112;28;20064;-62
2022/08/06 00:41:30;;;;;;;5.28;3.00;;;12.30;99.90;;;;;;5015910;28;20046;-62
2022/08/06 00:43:57;;;;;;;5.60;2.85;;;12.30;99.90;;;;;;5033184;28;20046;-62
2022/08/06 00:46:24;;;;;;;5.25;2.78;;;12.40;99.90;;;;;;5032975;28;20042;-62
2022/08/06 00:48:49;;;;;;;13.88;3.40;;;12.20;99.90;;;;;;5033011;28;20037;-62
2022/08/06 00:51:15;;;;;;;6.95;3.08;;;12.10;99.90;;;;;;5033013;28;20123;-62
2022/08/06 00:53:41;;;;;;;7.93;2.90;;;12.20;99.90;;;;;;5032789;28;20045;-62
2022/08/06 00:56:07;;;;;;;5.15;2.83;;;12.10;99.90;;;;;;5033141;28;20069;-62
2022/08/06 00:58:32;;;;;;;8.70;3.25;;;12.10;99.90;;;;;;5015789;28;20034;-68
2022/08/06 01:03:31;;;;;;;6.28;2.70;;;12.00;99.90;;;;;;5049857;28;20396;-57
2022/08/06 01:05:57;;;;;;;6.07;3.20;;;;;;;;;;5038694;28;20484;-60
2022/08/06 01:08:27;;;;;;;9.05;3.20;;;;;;;;;;5032985;28;20044;-60
2022/08/06 01:10:52;;;;;;;5.18;3.28;;;11.90;99.90;;;;;;5052127;28;20116;-59
2022/08/06 01:13:18;;;;;;;9.00;3.70;;;11.80;99.90;;;;;;5052693;28;20144;-60
2022/08/06 01:16:09;;;;;;;8.15;3.40;;;11.80;99.90;;;;;;5052815;28;20068;-59
2022/08/06 01:18:43;;;;;;;8.15;3.65;;;11.20;99.90;;;;;;5039721;28;20489;-59
2022/08/06 01:21:48;;;;;;;5.53;3.42;;;11.20;99.90;;;;;;5033049;28;20045;-59
2022/08/06 01:24:52;;;;;;;6.78;3.50;;;11.80;99.90;;;;;;5032734;28;20079;-59
2022/08/06 01:27:40;;;;;;;9.00;3.60;;;11.80;99.90;;;;;;5032914;28;20045;-59
2022/08/06 01:30:09;;;;;;;9.77;3.88;;;11.70;99.90;;;;;;5033026;28;20038;-59
2022/08/06 01:32:45;;;;;;;8.50;3.67;;;11.70;99.90;;;;;;5032810;28;20049;-59
2022/08/06 01:35:17;;;;;;;8.00;3.60;;;12.10;99.90;;;;;;5041035;28;20098;-59
2022/08/06 01:38:10;;;;;;;6.75;3.55;;;11.50;99.90;;;;;;5035393;28;20043;-59
2022/08/06 01:40:41;;;;;;;7.43;3.90;;;11.50;99.90;;;;;;5052597;28;20033;-59
2022/08/06 01:43:10;;;;;;;5.78;3.70;;;10.90;99.90;;;;;;5052572;28;20044;-59
2022/08/06 01:45:40;;;;;;;6.50;3.83;;;11.60;99.90;;;;;;5052298;28;20045;-59
2022/08/06 01:48:12;;;;;;;7.88;3.80;;;11.40;99.90;;;;;;5052651;28;20048;-59
2022/08/06 01:50:45;;;;;;;5.22;3.53;;;11.00;99.90;;;;;;5020169;28;20392;-59
2022/08/06 01:53:17;;;;;;;7.18;3.90;;;11.40;99.90;;;;;;5038263;28;20116;-59
2022/08/06 01:55:47;;;;;;;6.40;3.42;;;11.30;99.90;;;;;;5056042;28;20120;-59
2022/08/06 01:58:17;;;;;;;7.10;4.00;;;11.50;99.90;;;;;;5055765;28;20033;-59
2022/08/06 02:00:47;;;;;;;5.90;3.63;;;11.40;99.90;;;;;;5037415;28;20045;-59
2022/08/06 02:03:26;;;;;;;7.82;3.72;;;11.30;99.90;;;;;;5032634;28;20091;-59
2022/08/06 02:05:55;;;;;;;5.45;3.47;;;11.20;99.90;;;;;;5034341;28;20052;-59
2022/08/06 02:08:26;;;;;;;5.40;3.50;;;11.20;99.90;;;;;;5033785;28;20041;-59
2022/08/06 02:10:57;;;;;;;8.35;3.83;;;11.20;99.90;;;;;;5014338;28;20099;-59
2022/08/06 02:13:24;;;;;;;6.72;3.90;;;11.00;99.90;;;;;;5012686;28;20179;-59
2022/08/06 02:15:52;;;;;;;6.40;4.00;;;11.20;99.90;;;;;;5014900;28;20045;-59
2022/08/06 02:18:22;;;;;;;6.25;3.72;;;11.20;99.90;;;;;;5016116;28;20041;-59
2022/08/06 02:20:52;;;;;;;9.95;3.90;;;11.00;99.90;;;;;;5015880;28;20145;-59
2022/08/06 02:23:22;;;;;;;5.68;3.72;;;11.10;99.90;;;;;;5015971;28;20038;-59
2022/08/06 02:25:50;;;;;;;7.07;3.70;;;11.20;99.90;;;;;;5015924;28;20109;-59
2022/08/06 02:28:19;;;;;;;5.50;3.70;;;11.00;99.90;;;;;;5015975;28;20073;-59
2022/08/06 02:30:48;;;;;;;6.65;3.50;;;11.10;99.90;;;;;;5015704;28;20077;-59
2022/08/06 02:33:14;;;;;;;5.50;3.53;;;11.00;99.90;;;;;;5016041;28;20385;-59
2022/08/06 02:35:47;;;;;;;5.10;3.28;;;11.20;99.90;;;;;;5015476;28;20038;-59
2022/08/06 02:38:25;;;;;;;6.15;3.58;;;10.90;99.90;;;;;;5015765;28;20095;-59
2022/08/06 02:40:59;;;;;;;5.72;3.58;;;10.70;99.90;;;;;;5013522;28;20447;-59
2022/08/06 02:43:34;;;;;;;5.70;3.63;;;10.80;99.90;;;;;;5015650;28;20096;-59
2022/08/06 02:46:09;;;;;;;5.82;3.67;;;10.70;99.90;;;;;;5015263;28;20077;-59
2022/08/06 02:48:47;;;;;;;6.00;3.35;;;10.80;99.90;;;;;;5015202;28;20489;-59
2022/08/06 02:51:18;;;;;;;5.70;3.42;;;10.80;99.90;;;;;;5015350;28;20121;-59
2022/08/06 02:53:56;;;;;;;6.30;3.50;;;10.90;99.90;;;;;;5015104;28;20540;-59
2022/08/06 02:56:24;;;;;;;7.10;3.42;;;10.60;99.90;;;;;;5015127;28;20107;-59
2022/08/06 02:58:53;;;;;;;6.30;3.58;;;10.70;99.90;;;;;;5013981;28;20038;-59
2022/08/06 03:01:23;;;;;;;5.65;3.35;;;11.30;99.90;;;;;;5015673;28;20045;-59
2022/08/06 03:03:53;;;;;;;8.82;3.72;;;10.60;99.90;;;;;;5034678;28;20511;-59
2022/08/06 03:06:20;;;;;;;6.57;3.60;;;10.20;99.90;;;;;;5034934;28;20111;-59
2022/08/06 03:08:46;;;;;;;4.53;3.38;;;10.80;99.90;;;;;;5034594;28;20049;-59
2022/08/06 03:11:14;;;;;;;6.13;3.25;;;10.00;99.90;;;;;;5034693;28;20370;-59
2022/08/06 03:13:42;;;;;;;8.98;3.83;;;10.60;99.90;;;;;;5034321;28;20469;-59
2022/08/06 03:16:11;;;;;;;4.65;3.40;;;10.50;99.90;;;;;;5034462;28;20046;-59
2022/08/06 03:18:38;;;;;;;5.20;3.47;;;10.60;99.90;;;;;;5034634;28;20041;-59
2022/08/06 03:21:08;;;;;;;6.18;3.40;;;10.30;99.90;;;;;;5016760;28;20125;-59
2022/08/06 03:23:34;;;;;;;5.57;3.55;;;10.40;99.90;;;;;;5033110;28;20054;-59
2022/08/06 03:26:01;;;;;;;5.53;3.60;;;10.60;99.90;;;;;;5034369;28;20041;-59
2022/08/06 03:28:27;;;;;;;6.95;4.05;;;10.40;99.90;;;;;;5034638;28;20053;-59
2022/08/06 03:30:54;;;;;;;5.75;3.63;;;10.40;99.90;;;;;;5034091;28;20048;-59
2022/08/06 03:33:21;;;;;;;5.25;3.53;;;10.40;99.90;;;;;;5033965;28;20033;-59
2022/08/06 03:35:48;;;;;;;5.22;3.65;;;10.40;99.90;;;;;;5033935;28;20041;-59
2022/08/06 03:38:15;;;;;;;7.32;3.60;;;10.00;99.90;;;;;;5033923;28;20057;-59
2022/08/06 03:40:44;;;;;;;6.80;3.60;;;10.50;99.90;;;;;;5034138;28;20038;-59
2022/08/06 03:43:10;;;;;;;5.60;3.70;;;10.40;99.90;;;;;;5033911;28;20046;-59
2022/08/06 03:45:39;;;;;;;6.75;3.80;;;10.20;99.90;;;;;;5033898;28;20081;-59
2022/08/06 03:48:07;;;;;;;7.40;4.05;;;9.30;99.90;;;;;;5016047;28;20046;-59
2022/08/06 03:50:38;;;;;;;5.45;3.60;;;10.30;99.90;;;;;;5033813;28;20060;-59
2022/08/06 03:53:10;;;;;;;4.43;3.35;;;10.50;99.90;;;;;;5033647;28;20045;-59
2022/08/06 03:55:38;;;;;;;4.82;3.30;;;10.20;99.90;;;;;;5033946;28;20044;-60
2022/08/06 03:58:06;;;;;;;4.13;3.10;;;10.10;99.90;;;;;;5033965;28;20056;-59
2022/08/06 04:00:44;;;;;;;6.03;3.30;;;10.30;99.90;;;;;;5033714;28;20069;-59
2022/08/06 04:03:11;;;;;;;6.60;3.60;;;10.70;99.90;;;;;;5033331;28;20440;-59
2022/08/06 04:05:38;;;;;;;6.80;3.78;;;;;;;;;;5033762;28;20531;-59
2022/08/06 04:08:05;;;;;;;6.18;3.78;;;10.40;99.90;;;;;;5016541;28;20439;-59
2022/08/06 04:10:36;;;;;;;7.20;4.25;;;10.40;99.90;;;;;;5033431;28;20112;-59
2022/08/06 04:13:07;;;;;;;7.43;4.20;;;10.30;99.90;;;;;;5031051;28;20060;-59
2022/08/06 04:15:36;;;;;;;10.18;3.75;;;10.20;99.90;;;;;;5033414;28;20521;-59
2022/08/06 04:18:04;;;;;;;7.40;4.43;;;10.40;99.90;;;;;;5032923;28;20477;-59
2022/08/06 04:20:32;;;;;;;6.60;4.03;;;10.90;99.90;;;;;;5032193;28;20647;-59
2022/08/06 04:22:58;;;;;;;6.63;4.70;;;10.30;99.90;;;;;;5033186;28;20041;-59
2022/08/06 04:25:28;;;;;;;6.65;4.60;;;10.20;99.90;;;;;;5033409;28;20129;-59
2022/08/06 04:27:55;;;;;;;8.18;4.90;;;10.30;99.90;;;;;;5033253;28;20085;-59
2022/08/06 04:30:26;;;;;;;7.50;5.05;;;10.20;99.90;;;;;;5015457;28;20064;-58
2022/08/06 04:32:52;;;;;;;7.97;5.30;;;10.50;99.90;;;;;;5033466;28;20121;-59
2022/08/06 04:35:20;;;;;;;13.10;5.40;;;10.50;99.90;;;;;;5033449;28;20073;-60
2022/08/06 04:37:47;;;;;;;8.10;5.47;;;10.60;99.90;;;;;;5033086;28;20627;-59
2022/08/06 04:40:14;;;;;;;7.10;4.97;;;10.50;99.90;;;;;;5033340;28;20074;-59
2022/08/06 04:42:41;;;;;;;7.28;5.68;;;;;;;;;;5033074;28;20554;-59
2022/08/06 04:45:08;;;;;;;7.65;5.88;;;10.90;99.90;;;;;;5015431;28;20131;-59
2022/08/06 04:47:35;;;;;;;6.95;4.90;;;10.80;99.90;;;;;;5033090;28;20432;-59
2022/08/06 04:50:01;;;;;;;5.75;4.53;;;10.80;99.90;;;;;;5032968;28;20035;-59
2022/08/06 04:52:29;;;;;;;5.00;4.07;;;10.90;99.90;;;;;;5033201;28;20042;-59
2022/08/06 04:54:58;;;;;;;5.63;3.85;;;11.00;99.90;;;;;;5032933;28;20038;-59
2022/08/06 04:57:24;;;;;;;8.05;4.40;;;11.50;99.90;;;;;;5029608;28;20508;-59
2022/08/06 04:59:51;;;;;;;4.95;4.00;;;;;;;;;;5032898;28;20069;-59
2022/08/06 05:02:16;;;;;;;8.45;4.22;;;13.40;99.90;;;;;;5032840;28;20072;-59
2022/08/06 05:04:43;;;;;;;6.18;4.18;;;12.20;99.90;;;;;;5032862;28;20128;-59
2022/08/06 05:07:21;;;;;;;6.40;4.30;;;12.30;99.90;;;;;;5015720;28;20052;-59
2022/08/06 05:09:48;;;;;;;7.30;4.80;;;12.70;99.90;;;;;;5032833;28;20489;-59
2022/08/06 05:12:30;;;;;;;7.63;5.10;;;12.20;99.90;;;;;;5015008;28;20107;-59
2022/08/06 05:14:59;;;;;;;6.18;4.70;;;12.40;99.90;;;;;;5033205;28;20077;-59
2022/08/06 05:17:33;;;;;;;5.68;4.63;;;12.10;99.90;;;;;;5032673;28;20037;-59
2022/08/06 05:20:16;;;;;;;7.35;4.53;;;12.60;99.90;;;;;;5033098;28;20072;-59
2022/08/06 05:22:46;;;;;;;7.28;4.10;;;14.10;99.90;;;;;;5016092;28;20037;-60
2022/08/06 05:25:12;;;;;;;7.35;3.92;;;15.40;99.90;;;;;;5034137;28;20124;-58
2022/08/06 05:27:40;;;;;;;4.82;3.88;;;16.60;99.90;;;;;;5036525;28;20037;-58
2022/08/06 05:30:07;;;;;;;6.95;3.50;;;18.60;99.90;;;;;;5036359;28;20037;-60
2022/08/06 05:32:47;;;;;;;8.45;3.60;;;18.10;99.90;;;;;;5018662;28;20034;-58
2022/08/06 05:35:13;;;;;;;6.07;3.35;;;20.40;99.90;;;;;;5018639;28;20042;-59
2022/08/06 05:37:39;;;;;;;5.35;3.05;;;21.20;99.90;;;;;;5036270;28;20041;-59
2022/08/06 05:40:06;;;;;;;4.38;3.08;;;22.00;99.90;;;;;;5036367;28;20045;-59
2022/08/06 05:42:33;;;;;;;4.30;3.03;;;22.70;99.90;;;;;;5036634;28;20068;-59
2022/08/06 05:44:59;;;;;;;5.18;3.08;;;22.80;97.20;;;;;;5018649;28;20052;-59
2022/08/06 05:47:37;;;;;;;6.78;2.88;;;24.20;95.70;;;;;;5036253;28;20041;-59
2022/08/06 05:50:16;;;;;;;6.47;2.60;;;24.00;90.10;;;;;;5018573;28;20064;-59
2022/08/06 05:52:54;;;;;;;7.15;2.35;;;24.70;83.50;;;;;;5036097;28;20041;-59
2022/08/06 05:55:45;;;;;;;5.57;2.60;;;25.90;89.00;;;;;;5036164;28;20061;-60
2022/08/06 05:58:15;;;;;;;4.93;2.33;;;25.90;77.50;;;;;;5036171;28;20040;-60
2022/08/06 06:00:41;;;;;;;3.80;2.38;;;25.90;71.00;;;;;;5036088;28;20037;-59
2022/08/06 06:03:12;;;;;;;4.45;2.50;;;26.50;68.80;;;;;;5035586;28;20059;-60
2022/08/06 06:05:39;;;;;;;7.15;2.60;;;26.90;65.20;;;;;;5035730;28;20064;-60
2022/08/06 06:08:08;;;;;;;7.78;2.45;;;27.30;63.50;;;;;;5035940;28;20041;-59
2022/08/06 06:10:35;;;;;;;4.35;2.10;;;27.90;61.60;;;;;;5035990;28;20064;-59
2022/08/06 06:13:05;;;;;;;4.40;2.53;;;28.30;59.60;;;;;;5035787;28;20038;-59
2022/08/06 06:15:37;;;;;;;5.68;2.10;;;28.50;57.50;;;;;;5035586;28;20400;-59
2022/08/06 06:18:36;;;;;;;4.90;2.10;;;28.80;55.90;;;;;;5035670;28;20045;-59
2022/08/06 06:21:18;;;;;;;3.67;2.10;;;29.10;53.10;;;;;;5005295;28;20132;-60
2022/08/06 06:23:50;;;;;;;5.45;2.33;;;29.30;53.70;;;;;;5018019;28;20041;-59
2022/08/06 06:26:21;;;;;;;4.68;2.20;;;29.60;52.00;;;;;;5035716;28;20038;-59
2022/08/06 06:29:15;;;;;;;5.03;2.03;;;29.90;51.50;;;;;;5017713;28;20400;-60
2022/08/06 06:32:06;;;;;;;3.30;2.10;;;30.50;50.30;;;;;;5035464;28;20055;-60
2022/08/06 06:34:53;;;;;;;3.33;1.90;;;30.90;50.00;;;;;;5035173;28;20412;-60
2022/08/06 06:37:43;;;;;;;4.25;2.20;;;31.40;57.70;;;;;;5034968;28;20070;-60
2022/08/06 06:40:28;;;;;;;6.13;2.55;;;31.40;48.30;;;;;;5035207;28;20136;-60
2022/08/06 06:43:15;;;;;;;3.83;2.63;;;31.70;47.00;;;;;;5035477;28;20045;-60
2022/08/06 06:46:04;;;;;;;7.93;2.60;;;31.70;47.20;;;;;;5035253;28;20041;-60
2022/08/06 06:48:36;;;;;;;4.65;2.58;;;31.70;53.90;;;;;;5035119;28;20125;-60
2022/08/06 06:51:06;;;;;;;4.85;2.30;;;31.50;54.70;;;;;;5035209;28;20048;-60
2022/08/06 06:53:36;;;;;;;5.00;2.70;;;31.60;46.60;;;;;;5034949;28;20045;-60
2022/08/06 06:56:03;;;;;;;4.25;2.50;;;33.50;47.90;;;;;;5034766;28;20489;-60
2022/08/06 06:58:44;;;;;;;8.50;2.40;;;31.70;46.50;;;;;;5017499;28;20092;-60
2022/08/06 07:01:13;;;;;;;5.80;2.10;;;31.60;53.30;;;;;;5034971;28;20061;-60
2022/08/06 07:03:40;;;;;;;2.25;1.90;;;31.70;45.60;;;;;;5034751;28;20053;-60
2022/08/06 07:06:08;;;;;;;5.32;2.00;;;32.00;45.40;;;;;;5034850;28;20164;-60
2022/08/06 07:08:40;;;;;;;4.00;1.70;;;32.20;45.10;;;;;;5034722;28;20045;-60
2022/08/06 07:11:08;;;;;;;5.55;2.05;;;32.20;51.00;;;;;;5034767;28;20065;-60
2022/08/06 07:13:36;;;;;;;3.92;1.80;;;32.40;44.20;;;;;;5034564;28;20049;-60
2022/08/06 07:16:02;;;;;;;5.57;1.70;;;32.70;44.00;;;;;;5034914;28;20041;-60
2022/08/06 07:18:29;;;;;;;3.88;1.40;;;32.80;43.50;;;;;;5016282;28;20064;-60
2022/08/06 07:20:58;;;;;;;2.78;1.48;;;33.10;43.00;;;;;;5034407;28;20037;-60
2022/08/06 07:23:24;;;;;;;3.67;1.50;;;33.00;51.10;;;;;;5034779;28;20465;-60
2022/08/06 07:25:54;;;;;;;2.70;1.20;;;33.20;51.40;;;;;;5034428;28;20045;-60
2022/08/06 07:28:25;;;;;;;3.40;1.20;;;33.30;42.40;;;;;;5034226;28;20041;-60
2022/08/06 07:30:52;;;;;;;2.72;1.20;;;33.00;42.20;;;;;;5036574;28;20033;-61
2022/08/06 07:33:18;;;;;;;4.25;1.27;;;33.10;49.30;;;;;;5052898;28;20115;-60
2022/08/06 07:35:46;;;;;;;3.75;1.30;;;32.40;50.20;;;;;;5052842;28;20524;-60
2022/08/06 07:38:17;;;;;;;3.08;1.10;;;32.40;51.60;;;;;;5047750;28;20064;-60
2022/08/06 07:40:46;;;;;;;4.53;1.30;;;32.10;44.50;;;;;;5053118;28;20037;-60
2022/08/06 07:43:20;;;;;;;2.65;1.05;;;31.90;45.00;;;;;;5041383;28;20095;-60
2022/08/06 07:45:49;;;;;;;2.63;1.05;;;31.80;45.70;;;;;;5052758;28;20041;-61
2022/08/06 07:48:18;;;;;;;2.47;0.80;;;31.40;45.90;;;;;;5052275;28;20099;-60
2022/08/06 07:50:48;;;;;;;3.95;1.00;;;30.50;54.40;;;;;;5052731;28;20512;-60
2022/08/06 07:53:14;;;;;;;2.00;0.85;;;30.70;47.20;;;;;;5051284;28;20041;-61
2022/08/06 07:55:42;;;;;;;3.47;1.13;;;30.50;47.80;;;;;;5053003;28;20112;-61
2022/08/06 07:58:09;;;;;;;3.25;1.10;;;30.10;54.80;;;;;;5052710;28;20041;-61
2022/08/06 08:00:36;;;;;;;2.72;0.90;;;30.10;48.40;;;;;;5052987;28;20037;-60
2022/08/06 08:08:33;;;;;;;3.42;0.90;;;28.50;56.50;;;;;;5053043;28;20079;-62
2022/08/06 08:10:59;;;;;;;2.35;0.90;;;29.30;56.60;;;;;;5052429;28;20115;-61
2022/08/06 08:13:25;;;;;;;3.10;1.10;;;29.10;49.40;;;;;;5052242;28;20102;-61
2022/08/06 08:15:51;;;;;;;3.03;0.80;;;29.10;49.70;;;;;;5034559;28;20067;-61
2022/08/06 08:18:17;;;;;;;2.83;0.88;;;28.50;57.90;;;;;;5042422;28;20040;-61
2022/08/06 08:20:45;;;;;;;3.33;1.05;;;28.80;50.50;;;;;;5053176;28;20044;-61
2022/08/06 08:23:13;;;;;;;2.80;1.02;;;28.00;56.20;;;;;;5052787;28;20076;-61
2022/08/06 08:25:39;;;;;;;4.28;1.10;;;28.00;51.40;;;;;;5050816;28;20127;-61
2022/08/06 08:28:09;;;;;;;3.35;1.08;;;27.30;58.30;;;;;;5053337;28;20144;-61
2022/08/06 08:30:38;;;;;;;3.72;0.90;;;27.30;52.10;;;;;;5051242;28;20053;-62
2022/08/06 08:33:04;;;;;;;2.08;0.85;;;26.60;61.20;;;;;;5051442;28;20033;-61
2022/08/06 08:35:30;;;;;;;1.98;0.80;;;26.70;53.20;;;;;;5051434;28;20051;-61
2022/08/06 08:37:55;;;;;;;2.80;1.08;;;26.40;53.20;;;;;;5051778;28;20041;-61
2022/08/06 08:40:22;;;;;;;3.92;1.08;;;26.30;52.90;;;;;;5052068;28;20041;-61
2022/08/06 08:42:53;;;;;;;3.10;0.88;;;26.30;53.00;;;;;;5052416;28;20041;-61
2022/08/06 08:45:19;;;;;;;2.70;0.90;;;26.40;62.00;;;;;;5052977;28;20122;-61
2022/08/06 08:47:50;;;;;;;4.85;0.90;;;26.40;59.80;;;;;;5052979;28;20032;-61
2022/08/06 08:50:20;;;;;;;5.15;0.95;;;26.50;60.80;;;;;;5052846;28;20507;-61
2022/08/06 08:52:55;;;;;;;3.05;0.85;;;26.50;53.00;;;;;;5052650;28;20080;-61
2022/08/06 08:55:24;;;;;;;3.85;1.10;;;26.30;53.20;;;;;;5052933;28;20432;-61
2022/08/06 08:57:55;;;;;;;3.33;1.02;;;26.10;60.20;;;;;;5033737;28;20056;-61
2022/08/06 09:00:23;;;;;;;4.50;0.98;;;25.70;59.40;;;;;;5036823;28;20392;-61
2022/08/06 09:02:50;;;;;;;4.30;0.98;;;25.40;60.30;;;;;;5056427;28;20449;-61
2022/08/06 09:05:17;;;;;;;4.53;1.15;;;25.40;54.10;;;;;;5039048;28;20120;-61
2022/08/06 09:07:43;;;;;;;3.80;1.00;;;25.30;60.70;;;;;;5056763;28;20041;-61
2022/08/06 09:10:10;;;;;;;2.92;1.00;;;25.60;55.00;;;;;;5056659;28;20045;-60
2022/08/06 09:12:36;;;;;;;2.03;1.00;;;25.70;55.20;;;;;;5056678;28;20082;-61
2022/08/06 09:15:02;;;;;;;2.55;1.20;;;26.20;59.80;;;;;;5056728;28;20407;-61
2022/08/06 09:17:29;;;;;;;2.92;1.25;;;25.80;59.40;;;;;;5056265;28;20083;-61
2022/08/06 09:19:55;;;;;;;7.65;1.25;;;25.50;53.10;;;;;;5056360;28;20044;-61
2022/08/06 09:22:20;;;;;;;3.08;1.00;;;25.40;53.40;;;;;;5055587;28;20106;-61
2022/08/06 09:24:46;;;;;;;4.72;1.13;;;25.70;54.00;;;;;;5037699;28;20067;-60
2022/08/06 09:27:14;;;;;;;3.08;1.15;;;25.80;54.60;;;;;;5056296;28;20043;-61
2022/08/06 09:29:59;;;;;;;1.85;1.05;;;25.80;54.30;;;;;;5037461;28;20119;-61
2022/08/06 09:32:42;;;;;;;2.50;1.27;;;25.40;53.00;;;;;;5054765;28;20041;-61
2022/08/06 09:35:18;;;;;;;3.63;1.48;;;25.30;53.30;;;;;;5055477;28;20033;-61
2022/08/06 09:37:44;;;;;;;1.83;0.93;;;24.50;63.10;;;;;;5055827;28;20136;-60
2022/08/06 09:40:15;;;;;;;2.92;1.10;;;24.70;64.30;;;;;;5054880;28;20114;-60
2022/08/06 09:42:48;;;;;;;4.47;1.35;;;24.00;56.60;;;;;;5055738;28;20559;-60
2022/08/06 09:45:17;;;;;;;2.90;1.10;;;23.10;63.40;;;;;;5056228;28;20044;-60
2022/08/06 09:47:59;;;;;;;2.17;0.95;;;23.30;57.50;;;;;;5056022;28;20045;-60
2022/08/06 09:50:39;;;;;;;2.72;1.05;;;23.30;65.40;;;;;;5054707;28;20041;-60
2022/08/06 09:53:06;;;;;;;4.15;1.30;;;23.50;56.80;;;;;;5055869;28;20045;-60
2022/08/06 09:55:33;;;;;;;3.13;1.30;;;23.80;56.70;;;;;;5055608;28;20095;-60
2022/08/06 09:57:59;;;;;;;3.40;1.20;;;24.00;56.20;;;;;;5056104;28;20041;-60
2022/08/06 10:00:32;;;;;;;5.93;1.30;;;24.20;56.50;;;;;;5056165;28;20037;-61
2022/08/06 10:03:03;;;;;;;3.33;1.10;;;24.80;63.40;;;;;;5055593;28;20110;-60
2022/08/06 10:05:29;;;;;;;4.45;1.40;;;24.90;62.50;;;;;;5037906;28;20056;-61
2022/08/06 10:08:06;;;;;;;2.72;1.17;;;25.00;55.80;;;;;;5055354;28;20155;-61
2022/08/06 10:10:51;;;;;;;3.30;1.30;;;25.10;54.90;;;;;;5055177;28;20044;-61
2022/08/06 10:13:24;;;;;;;4.15;1.20;;;25.00;62.40;;;;;;5053572;28;20045;-61
2022/08/06 10:15:51;;;;;;;2.78;1.30;;;24.90;55.00;;;;;;5047464;28;20044;-60
2022/08/06 10:18:37;;;;;;;3.15;1.17;;;24.70;55.50;;;;;;5049573;28;20041;-61
2022/08/06 10:21:10;;;;;;;3.13;1.30;;;24.70;56.00;;;;;;5020472;28;20048;-58
2022/08/06 10:23:39;;;;;;;2.28;1.20;;;25.20;61.10;;;;;;5035293;28;20080;-60
2022/08/06 10:26:13;;;;;;;4.78;1.50;;;24.60;55.50;;;;;;5018064;28;20370;-58
2022/08/06 10:28:43;;;;;;;3.95;1.60;;;24.50;62.00;;;;;;5017354;28;20088;-58
2022/08/06 10:31:11;;;;;;;2.45;1.30;;;24.50;55.80;;;;;;5035334;28;20045;-58
2022/08/06 10:33:49;;;;;;;6.57;1.40;;;24.40;55.90;;;;;;5035324;28;20044;-58
2022/08/06 10:36:19;;;;;;;2.42;1.40;;;23.90;62.50;;;;;;5035191;28;20088;-59
2022/08/06 10:38:48;;;;;;;4.63;1.67;;;24.10;55.50;;;;;;5035246;28;20041;-58
2022/08/06 10:41:14;;;;;;;3.55;1.80;;;23.90;55.90;;;;;;5017656;28;20064;-58
2022/08/06 10:43:40;;;;;;;6.25;1.95;;;23.60;55.30;;;;;;5036751;28;20044;-58
2022/08/06 10:46:08;;;;;;;2.55;1.90;;;23.40;55.80;;;;;;5054715;28;20123;-59
2022/08/06 10:48:36;;;;;;;2.80;1.70;;;23.10;56.20;;;;;;5054817;28;20095;-58
2022/08/06 10:51:04;;;;;;;2.15;1.77;;;22.80;57.10;;;;;;5054736;28;20037;-58
2022/08/06 10:53:32;;;;;;;3.75;2.00;;;22.60;56.90;;;;;;5054650;28;20120;-58
2022/08/06 10:56:02;;;;;;;4.57;1.90;;;22.50;57.40;;;;;;5036661;28;20052;-57
2022/08/06 10:58:33;;;;;;;3.83;1.90;;;22.30;56.10;;;;;;5054779;28;20396;-58
2022/08/06 11:01:03;;;;;;;4.25;1.90;;;22.50;65.70;;;;;;5054654;28;20044;-58
2022/08/06 11:03:54;;;;;;;3.25;1.98;;;22.50;57.20;;;;;;5053587;28;20049;-58
2022/08/06 11:06:47;;;;;;;3.47;1.80;;;23.20;62.10;;;;;;5051505;28;20083;-59
2022/08/06 11:09:31;;;;;;;4.07;1.80;;;23.20;54.60;;;;;;5052948;28;20043;-59
2022/08/06 11:12:38;;;;;;;3.83;1.85;;;23.20;56.80;;;;;;5053876;28;20056;-57
2022/08/06 11:15:05;;;;;;;6.47;2.05;;;23.10;56.80;;;;;;5054367;28;20057;-59
2022/08/06 11:17:47;;;;;;;4.00;1.95;;;23.50;65.20;;;;;;5054142;28;20048;-60
2022/08/06 11:20:31;;;;;;;4.85;1.90;;;23.00;58.20;;;;;;5053985;28;20084;-57
2022/08/06 11:22:57;;;;;;;2.60;1.73;;;22.90;59.60;;;;;;5050769;28;20056;-61
2022/08/06 11:25:53;;;;;;;4.78;1.80;;;22.80;60.10;;;;;;5053192;28;20488;-61
2022/08/06 11:28:26;;;;;;;3.60;2.05;;;22.70;61.70;;;;;;5051034;28;20048;-60
2022/08/06 11:30:58;;;;;;;5.32;1.90;;;22.80;61.40;;;;;;5053171;28;20041;-60
2022/08/06 11:33:33;;;;;;;3.15;2.03;;;22.80;61.40;;;;;;5053832;28;20059;-61
2022/08/06 11:36:04;;;;;;;3.08;1.80;;;22.90;64.10;;;;;;5053927;28;20127;-60
2022/08/06 11:38:42;;;;;;;6.15;2.00;;;23.10;62.40;;;;;;5054185;28;20033;-61
2022/08/06 11:41:09;;;;;;;5.68;1.80;;;23.00;67.40;;;;;;5053947;28;20068;-60
2022/08/06 11:43:53;;;;;;;4.10;1.88;;;23.00;67.10;;;;;;5035906;28;20047;-60
2022/08/06 11:46:26;;;;;;;3.72;2.05;;;23.10;60.00;;;;;;5019489;28;20435;-60
2022/08/06 11:49:06;;;;;;;3.78;2.03;;;22.90;60.10;;;;;;5053841;28;20080;-59
2022/08/06 11:51:56;;;;;;;5.70;1.90;;;23.00;60.50;;;;;;5053392;28;20095;-58
2022/08/06 11:54:32;;;;;;;7.90;2.10;;;22.50;65.70;;;;;;5053606;28;20052;-57
2022/08/06 11:57:01;;;;;;;4.60;2.00;;;23.00;58.70;;;;;;5053816;28;20045;-58
2022/08/06 11:59:54;;;;;;;5.00;2.10;;;23.20;67.10;;;;;;5036250;28;20163;-58
2022/08/06 12:02:42;;;;;;;4.07;2.00;;;22.60;68.90;;;;;;5046353;28;20090;-59
2022/08/06 12:05:14;;;;;;;3.50;1.80;;;22.90;59.20;;;;;;5053324;28;20056;-59
2022/08/06 12:07:45;;;;;;;4.90;1.98;;;22.80;59.70;;;;;;5035090;28;20072;-60
2022/08/06 12:10:13;;;;;;;3.35;1.92;;;22.70;60.90;;;;;;5033310;28;20041;-59
2022/08/06 12:12:43;;;;;;;5.38;1.88;;;22.40;66.90;;;;;;5033112;28;20048;-59
2022/08/06 12:15:11;;;;;;;3.83;1.83;;;22.50;62.00;;;;;;5032951;28;20457;-58
2022/08/06 12:18:03;;;;;;;9.13;1.98;;;22.40;61.20;;;;;;5041580;28;20033;-59
2022/08/06 12:20:43;;;;;;;5.38;2.10;;;21.60;68.30;;;;;;5043480;28;20049;-58
2022/08/06 12:23:11;;;;;;;4.85;2.10;;;22.40;63.70;;;;;;5052561;28;20057;-58
2022/08/06 12:25:42;;;;;;;5.10;2.15;;;22.70;69.00;;;;;;5052777;28;20060;-59
2022/08/06 12:28:13;;;;;;;3.50;1.90;;;22.50;63.10;;;;;;5053121;28;20045;-58
2022/08/06 12:30:47;;;;;;;2.65;1.73;;;22.50;62.50;;;;;;5035038;28;20430;-58
2022/08/06 12:33:13;;;;;;;3.35;1.80;;;23.30;62.30;;;;;;5052864;28;20041;-57
2022/08/06 12:35:59;;;;;;;3.13;1.80;;;22.40;63.40;;;;;;5052742;28;20534;-58
2022/08/06 12:38:27;;;;;;;;;;;22.50;63.80;;;;;;5053418;28;20036;-58
2022/08/06 12:40:57;;;;;;;3.65;1.80;;;22.60;68.10;;;;;;5052875;28;19923;-58
2022/08/06 12:43:23;;;;;;;2.88;1.67;;;22.60;62.30;;;;;;5052660;28;20048;-58
2022/08/06 12:45:59;;;;;;;4.95;1.90;;;22.80;61.70;;;;;;5052723;28;20112;-58
2022/08/06 12:48:26;;;;;;;4.45;1.70;;;23.00;61.50;;;;;;5052545;28;20044;-58
2022/08/06 12:51:03;;;;;;;3.97;1.80;;;23.10;61.50;;;;;;5034435;28;20044;-58
2022/08/06 12:53:29;;;;;;;3.33;1.70;;;23.40;66.70;;;;;;5052977;28;20120;-58
2022/08/06 12:55:56;;;;;;;5.18;1.90;;;23.40;59.70;;;;;;5052704;28;20041;-58
2022/08/06 12:58:43;;;;;;;4.65;1.80;;;23.30;58.20;;;;;;5052722;28;20068;-58
2022/08/06 13:01:18;;;;;;;3.67;1.92;;;23.30;60.40;;;;;;5052914;28;20048;-58
2022/08/06 13:03:48;;;;;;;2.10;1.63;;;23.40;59.90;;;;;;5052385;28;20250;-58
2022/08/06 13:06:17;;;;;;;6.47;1.95;;;23.40;60.70;;;;;;5052688;28;20049;-58
2022/08/06 13:08:50;;;;;;;3.00;1.90;;;23.40;58.60;;;;;;5043569;28;20033;-58
2022/08/06 13:11:16;;;;;;;5.70;2.78;;;23.30;59.20;;;;;;5032675;28;20037;-58
2022/08/06 13:13:50;;;;;;;5.47;2.30;;;23.40;59.10;;;;;;5051563;28;20040;-57
2022/08/06 13:16:17;;;;;;;3.83;2.28;;;23.60;57.70;;;;;;5052396;28;20041;-57
2022/08/06 13:19:06;;;;;;;4.22;2.00;;;23.90;64.60;;;;;;5052429;28;20242;-57
2022/08/06 13:21:33;;;;;;;1.80;1.60;;;24.10;55.60;;;;;;5051214;28;20029;-58